sensor_id;sensor_type;location;lat;lon;timestamp;temperature;humidity
21590;DHT22;10957;50.968;6.828;2023-06-19T00:02:07;21.10;99.90
21590;DHT22;10957;50.968;6.828;2023-06-19T00:07:08;21.00;99.90
21590;DHT22;10957;50.968;6.828;2023-06-19T00:12:10;20.90;99.90
21590;DHT22;10957;50.968;6.828;2023-06-19T00:17:12;20.90;99.90
21590;DHT22;10957;50.968;6.828;2023-06-19T00:22:17;20.90;99.90
21590;DHT22;10957;50.968;6.828;2023-06-19T00:27:18;20.70;99.90
21590;DHT22;10957;50.968;6.828;2023-06-19T00:32:21;20.60;99.90
21590;DHT22;10957;50.968;6.828;2023-06-19T00:37:22;20.50;99.90
21590;DHT22;10957;50.968;6.828;2023-06-19T00:42:23;20.40;99.90
21590;DHT22;10957;50.968;6.828;2023-06-19T00:47:25;20.40;99.90
21590;DHT22;10957;50.968;6.828;2023-06-19T00:52:26;20.30;99.90
21590;DHT22;10957;50.968;6.828;2023-06-19T00:57:29;20.30;99.90
21590;DHT22;10957;50.968;6.828;2023-06-19T01:02:31;20.30;99.90
21590;DHT22;10957;50.968;6.828;2023-06-19T01:13:10;20.30;99.90
21590;DHT22;10957;50.968;6.828;2023-06-19T01:18:13;20.20;99.90
21590;DHT22;10957;50.968;6.828;2023-06-19T01:23:14;20.10;99.90
21590;DHT22;10957;50.968;6.828;2023-06-19T01:28:15;20.00;99.90
21590;DHT22;10957;50.968;6.828;2023-06-19T01:33:28;19.90;99.90
21590;DHT22;10957;50.968;6.828;2023-06-19T01:38:32;19.80;99.90
21590;DHT22;10957;50.968;6.828;2023-06-19T01:43:37;19.90;99.90
21590;DHT22;10957;50.968;6.828;2023-06-19T01:48:39;19.90;99.90
21590;DHT22;10957;50.968;6.828;2023-06-19T01:53:41;19.80;99.90
21590;DHT22;10957;50.968;6.828;2023-06-19T01:58:44;19.80;99.90
21590;DHT22;10957;50.968;6.828;2023-06-19T02:03:45;19.90;99.90
21590;DHT22;10957;50.968;6.828;2023-06-19T02:08:47;19.90;99.90
21590;DHT22;10957;50.968;6.828;2023-06-19T02:13:49;20.00;99.90
21590;DHT22;10957;50.968;6.828;2023-06-19T02:18:50;20.10;99.90
21590;DHT22;10957;50.968;6.828;2023-06-19T02:23:52;20.00;99.90
21590;DHT22;10957;50.968;6.828;2023-06-19T02:28:53;19.90;99.90
21590;DHT22;10957;50.968;6.828;2023-06-19T02:33:55;20.00;99.90
21590;DHT22;10957;50.968;6.828;2023-06-19T02:38:56;20.00;99.90
21590;DHT22;10957;50.968;6.828;2023-06-19T02:43:57;20.00;99.90
21590;DHT22;10957;50.968;6.828;2023-06-19T02:48:59;20.00;99.90
21590;DHT22;10957;50.968;6.828;2023-06-19T02:54:01;19.90;99.90
21590;DHT22;10957;50.968;6.828;2023-06-19T02:59:03;19.80;99.90
21590;DHT22;10957;50.968;6.828;2023-06-19T03:04:04;19.70;99.90
21590;DHT22;10957;50.968;6.828;2023-06-19T03:09:06;19.60;99.90
21590;DHT22;10957;50.968;6.828;2023-06-19T03:14:13;19.50;99.90
21590;DHT22;10957;50.968;6.828;2023-06-19T03:19:15;19.30;99.90
21590;DHT22;10957;50.968;6.828;2023-06-19T03:24:16;19.20;99.90
21590;DHT22;10957;50.968;6.828;2023-06-19T03:29:18;19.10;99.90
21590;DHT22;10957;50.968;6.828;2023-06-19T03:34:34;19.30;99.90
21590;DHT22;10957;50.968;6.828;2023-06-19T03:39:38;19.30;99.90
21590;DHT22;10957;50.968;6.828;2023-06-19T03:44:43;19.20;99.90
21590;DHT22;10957;50.968;6.828;2023-06-19T03:49:44;19.40;99.90
21590;DHT22;10957;50.968;6.828;2023-06-19T03:54:45;19.30;99.90
21590;DHT22;10957;50.968;6.828;2023-06-19T03:59:47;19.20;99.90
21590;DHT22;10957;50.968;6.828;2023-06-19T04:04:48;19.30;99.90
21590;DHT22;10957;50.968;6.828;2023-06-19T04:09:49;19.40;99.90
21590;DHT22;10957;50.968;6.828;2023-06-19T04:14:52;19.40;99.90
21590;DHT22;10957;50.968;6.828;2023-06-19T04:19:54;19.60;99.90
21590;DHT22;10957;50.968;6.828;2023-06-19T04:24:56;19.70;99.90
21590;DHT22;10957;50.968;6.828;2023-06-19T04:29:57;19.80;99.90
21590;DHT22;10957;50.968;6.828;2023-06-19T04:34:58;19.80;99.90
21590;DHT22;10957;50.968;6.828;2023-06-19T04:40:00;19.80;99.90
21590;DHT22;10957;50.968;6.828;2023-06-19T04:45:01;19.70;99.90
21590;DHT22;10957;50.968;6.828;2023-06-19T04:50:02;19.70;99.90
21590;DHT22;10957;50.968;6.828;2023-06-19T04:55:07;19.70;99.90
21590;DHT22;10957;50.968;6.828;2023-06-19T05:00:10;19.70;99.90
21590;DHT22;10957;50.968;6.828;2023-06-19T05:05:12;19.90;99.90
21590;DHT22;10957;50.968;6.828;2023-06-19T05:10:14;20.00;99.90
21590;DHT22;10957;50.968;6.828;2023-06-19T05:15:15;20.10;99.90
21590;DHT22;10957;50.968;6.828;2023-06-19T05:20:16;20.50;99.90
21590;DHT22;10957;50.968;6.828;2023-06-19T05:25:18;20.50;99.90
21590;DHT22;10957;50.968;6.828;2023-06-19T05:30:19;20.60;99.90
21590;DHT22;10957;50.968;6.828;2023-06-19T05:35:20;20.50;99.90
21590;DHT22;10957;50.968;6.828;2023-06-19T05:40:22;20.70;99.90
21590;DHT22;10957;50.968;6.828;2023-06-19T05:45:26;20.80;99.90
21590;DHT22;10957;50.968;6.828;2023-06-19T05:50:27;20.90;99.90
21590;DHT22;10957;50.968;6.828;2023-06-19T05:55:29;21.00;99.90
21590;DHT22;10957;50.968;6.828;2023-06-19T06:00:31;20.90;99.90
21590;DHT22;10957;50.968;6.828;2023-06-19T06:05:33;21.00;99.90
21590;DHT22;10957;50.968;6.828;2023-06-19T06:10:34;21.50;99.90
21590;DHT22;10957;50.968;6.828;2023-06-19T06:15:36;21.50;99.90
21590;DHT22;10957;50.968;6.828;2023-06-19T06:20:37;21.30;99.90
21590;DHT22;10957;50.968;6.828;2023-06-19T06:25:38;21.30;99.90
21590;DHT22;10957;50.968;6.828;2023-06-19T06:30:39;21.50;99.90
21590;DHT22;10957;50.968;6.828;2023-06-19T06:35:41;22.30;99.90
21590;DHT22;10957;50.968;6.828;2023-06-19T06:40:42;23.10;99.90
21590;DHT22;10957;50.968;6.828;2023-06-19T06:45:44;23.70;99.90
21590;DHT22;10957;50.968;6.828;2023-06-19T06:50:45;23.60;99.90
21590;DHT22;10957;50.968;6.828;2023-06-19T06:55:46;22.90;99.90
21590;DHT22;10957;50.968;6.828;2023-06-19T07:00:48;22.90;99.90
21590;DHT22;10957;50.968;6.828;2023-06-19T07:05:49;22.90;99.90
21590;DHT22;10957;50.968;6.828;2023-06-19T07:10:50;23.00;99.90
21590;DHT22;10957;50.968;6.828;2023-06-19T07:15:52;23.10;99.90
21590;DHT22;10957;50.968;6.828;2023-06-19T07:20:53;23.50;99.90
21590;DHT22;10957;50.968;6.828;2023-06-19T07:25:55;23.40;99.90
21590;DHT22;10957;50.968;6.828;2023-06-19T07:30:56;23.40;96.40
21590;DHT22;10957;50.968;6.828;2023-06-19T07:35:57;23.40;99.90
21590;DHT22;10957;50.968;6.828;2023-06-19T07:40:58;23.20;99.00
21590;DHT22;10957;50.968;6.828;2023-06-19T07:46:00;22.80;98.90
21590;DHT22;10957;50.968;6.828;2023-06-19T07:51:01;22.90;99.90
21590;DHT22;10957;50.968;6.828;2023-06-19T07:56:02;23.10;99.90
21590;DHT22;10957;50.968;6.828;2023-06-19T08:01:04;22.90;99.90
21590;DHT22;10957;50.968;6.828;2023-06-19T08:06:05;22.90;99.90
21590;DHT22;10957;50.968;6.828;2023-06-19T08:11:07;23.00;99.90
21590;DHT22;10957;50.968;6.828;2023-06-19T08:16:08;22.90;99.90
21590;DHT22;10957;50.968;6.828;2023-06-19T08:21:12;22.90;99.90
21590;DHT22;10957;50.968;6.828;2023-06-19T08:26:14;23.10;99.90
21590;DHT22;10957;50.968;6.828;2023-06-19T08:31:15;23.20;99.90
21590;DHT22;10957;50.968;6.828;2023-06-19T08:36:17;23.70;99.90
21590;DHT22;10957;50.968;6.828;2023-06-19T08:41:19;24.90;99.90
21590;DHT22;10957;50.968;6.828;2023-06-19T08:46:20;25.60;99.90
21590;DHT22;10957;50.968;6.828;2023-06-19T08:51:26;26.50;99.90
21590;DHT22;10957;50.968;6.828;2023-06-19T08:56:30;26.10;91.40
21590;DHT22;10957;50.968;6.828;2023-06-19T09:01:35;26.50;92.40
21590;DHT22;10957;50.968;6.828;2023-06-19T09:06:45;25.60;62.60
21590;DHT22;10957;50.968;6.828;2023-06-19T09:12:06;24.40;57.00
21590;DHT22;10957;50.968;6.828;2023-06-19T09:17:17;25.90;86.80
21590;DHT22;10957;50.968;6.828;2023-06-19T09:22:22;25.70;77.00
21590;DHT22;10957;50.968;6.828;2023-06-19T09:27:23;25.60;37.60
21590;DHT22;10957;50.968;6.828;2023-06-19T09:32:26;25.80;37.30
21590;DHT22;10957;50.968;6.828;2023-06-19T09:37:29;25.70;31.00
21590;DHT22;10957;50.968;6.828;2023-06-19T09:42:33;26.00;37.80
21590;DHT22;10957;50.968;6.828;2023-06-19T09:47:38;26.30;37.10
21590;DHT22;10957;50.968;6.828;2023-06-19T09:52:41;26.40;37.90
21590;DHT22;10957;50.968;6.828;2023-06-19T09:57:44;26.70;14.90
21590;DHT22;10957;50.968;6.828;2023-06-19T10:02:46;26.60;7.30
21590;DHT22;10957;50.968;6.828;2023-06-19T10:07:48;26.30;8.20
21590;DHT22;10957;50.968;6.828;2023-06-19T10:12:49;27.00;17.70
21590;DHT22;10957;50.968;6.828;2023-06-19T10:17:53;26.80;4.00
21590;DHT22;10957;50.968;6.828;2023-06-19T10:23:11;27.20;1.00
21590;DHT22;10957;50.968;6.828;2023-06-19T10:28:21;26.50;1.00
21590;DHT22;10957;50.968;6.828;2023-06-19T10:33:28;26.80;1.00
21590;DHT22;10957;50.968;6.828;2023-06-19T10:38:30;26.80;1.00
21590;DHT22;10957;50.968;6.828;2023-06-19T10:43:31;27.00;5.70
21590;DHT22;10957;50.968;6.828;2023-06-19T10:48:33;27.30;1.00
21590;DHT22;10957;50.968;6.828;2023-06-19T10:53:35;27.30;1.00
21590;DHT22;10957;50.968;6.828;2023-06-19T10:58:41;27.20;1.00
21590;DHT22;10957;50.968;6.828;2023-06-19T11:03:47;26.20;1.00
21590;DHT22;10957;50.968;6.828;2023-06-19T11:08:52;26.70;1.00
21590;DHT22;10957;50.968;6.828;2023-06-19T11:13:53;26.20;1.00
21590;DHT22;10957;50.968;6.828;2023-06-19T11:18:56;27.20;1.00
21590;DHT22;10957;50.968;6.828;2023-06-19T11:23:58;27.50;1.00
21590;DHT22;10957;50.968;6.828;2023-06-19T11:28:59;27.30;1.00
21590;DHT22;10957;50.968;6.828;2023-06-19T11:34:00;27.40;1.00
21590;DHT22;10957;50.968;6.828;2023-06-19T11:39:10;27.20;1.00
21590;DHT22;10957;50.968;6.828;2023-06-19T11:44:12;27.40;1.00
21590;DHT22;10957;50.968;6.828;2023-06-19T11:49:15;27.30;1.00
21590;DHT22;10957;50.968;6.828;2023-06-19T11:54:21;26.90;1.00
21590;DHT22;10957;50.968;6.828;2023-06-19T11:59:23;26.90;1.00
21590;DHT22;10957;50.968;6.828;2023-06-19T12:04:24;27.00;1.00
21590;DHT22;10957;50.968;6.828;2023-06-19T12:09:26;27.70;1.00
21590;DHT22;10957;50.968;6.828;2023-06-19T12:14:27;27.60;1.00
21590;DHT22;10957;50.968;6.828;2023-06-19T12:19:28;27.70;1.00
21590;DHT22;10957;50.968;6.828;2023-06-19T12:24:29;27.40;1.00
21590;DHT22;10957;50.968;6.828;2023-06-19T12:29:31;27.50;1.00
21590;DHT22;10957;50.968;6.828;2023-06-19T12:34:32;27.20;1.00
21590;DHT22;10957;50.968;6.828;2023-06-19T12:39:33;27.50;1.00
21590;DHT22;10957;50.968;6.828;2023-06-19T12:44:35;27.60;1.00
21590;DHT22;10957;50.968;6.828;2023-06-19T12:49:36;27.90;1.00
21590;DHT22;10957;50.968;6.828;2023-06-19T12:54:38;27.60;1.00
21590;DHT22;10957;50.968;6.828;2023-06-19T12:59:40;27.70;1.00
21590;DHT22;10957;50.968;6.828;2023-06-19T13:04:42;27.70;1.00
21590;DHT22;10957;50.968;6.828;2023-06-19T13:09:44;27.80;1.00
21590;DHT22;10957;50.968;6.828;2023-06-19T13:14:45;27.70;1.00
21590;DHT22;10957;50.968;6.828;2023-06-19T13:19:46;27.90;1.00
21590;DHT22;10957;50.968;6.828;2023-06-19T13:24:48;27.70;1.00
21590;DHT22;10957;50.968;6.828;2023-06-19T13:29:49;28.20;1.00
21590;DHT22;10957;50.968;6.828;2023-06-19T13:34:50;28.20;1.00
21590;DHT22;10957;50.968;6.828;2023-06-19T13:39:51;28.30;1.00
21590;DHT22;10957;50.968;6.828;2023-06-19T13:44:53;28.60;1.00
21590;DHT22;10957;50.968;6.828;2023-06-19T13:49:54;28.70;1.00
21590;DHT22;10957;50.968;6.828;2023-06-19T13:54:55;28.30;1.00
21590;DHT22;10957;50.968;6.828;2023-06-19T13:59:56;28.40;1.00
21590;DHT22;10957;50.968;6.828;2023-06-19T14:04:58;28.70;1.00
21590;DHT22;10957;50.968;6.828;2023-06-19T14:10:03;28.60;1.00
21590;DHT22;10957;50.968;6.828;2023-06-19T14:15:07;28.90;1.00
21590;DHT22;10957;50.968;6.828;2023-06-19T14:20:11;28.40;1.00
21590;DHT22;10957;50.968;6.828;2023-06-19T14:25:12;28.10;1.00
21590;DHT22;10957;50.968;6.828;2023-06-19T14:30:14;28.60;1.00
21590;DHT22;10957;50.968;6.828;2023-06-19T14:35:15;28.50;1.00
21590;DHT22;10957;50.968;6.828;2023-06-19T14:40:16;28.70;1.00
21590;DHT22;10957;50.968;6.828;2023-06-19T14:45:17;28.80;1.00
21590;DHT22;10957;50.968;6.828;2023-06-19T14:50:19;28.80;1.00
21590;DHT22;10957;50.968;6.828;2023-06-19T14:55:20;29.20;1.00
21590;DHT22;10957;50.968;6.828;2023-06-19T15:00:22;29.40;1.00
21590;DHT22;10957;50.968;6.828;2023-06-19T15:05:24;29.30;1.00
21590;DHT22;10957;50.968;6.828;2023-06-19T15:10:25;28.80;1.00
21590;DHT22;10957;50.968;6.828;2023-06-19T15:15:26;29.30;1.00
21590;DHT22;10957;50.968;6.828;2023-06-19T15:20:28;29.30;1.00
21590;DHT22;10957;50.968;6.828;2023-06-19T15:25:29;29.30;1.00
21590;DHT22;10957;50.968;6.828;2023-06-19T15:30:30;29.00;1.00
21590;DHT22;10957;50.968;6.828;2023-06-19T15:35:32;29.30;1.00
21590;DHT22;10957;50.968;6.828;2023-06-19T15:40:33;29.10;1.00
21590;DHT22;10957;50.968;6.828;2023-06-19T15:45:38;29.30;1.00
21590;DHT22;10957;50.968;6.828;2023-06-19T15:50:40;29.50;1.00
21590;DHT22;10957;50.968;6.828;2023-06-19T15:55:41;29.40;1.00
21590;DHT22;10957;50.968;6.828;2023-06-19T16:00:43;29.10;1.00
21590;DHT22;10957;50.968;6.828;2023-06-19T16:05:44;29.20;1.00
21590;DHT22;10957;50.968;6.828;2023-06-19T16:10:47;29.30;1.00
21590;DHT22;10957;50.968;6.828;2023-06-19T16:15:48;29.20;1.00
21590;DHT22;10957;50.968;6.828;2023-06-19T16:20:49;28.90;1.00
21590;DHT22;10957;50.968;6.828;2023-06-19T16:25:50;28.80;1.00
21590;DHT22;10957;50.968;6.828;2023-06-19T16:30:51;28.90;1.00
21590;DHT22;10957;50.968;6.828;2023-06-19T16:35:53;29.10;1.00
21590;DHT22;10957;50.968;6.828;2023-06-19T16:40:55;29.10;1.00
21590;DHT22;10957;50.968;6.828;2023-06-19T16:45:57;28.80;1.00
21590;DHT22;10957;50.968;6.828;2023-06-19T16:50:58;28.80;1.00
21590;DHT22;10957;50.968;6.828;2023-06-19T16:56:00;28.80;1.00
21590;DHT22;10957;50.968;6.828;2023-06-19T17:01:01;28.70;1.00
21590;DHT22;10957;50.968;6.828;2023-06-19T17:06:02;28.50;1.00
21590;DHT22;10957;50.968;6.828;2023-06-19T17:11:03;28.30;1.00
21590;DHT22;10957;50.968;6.828;2023-06-19T17:16:06;28.30;1.00
21590;DHT22;10957;50.968;6.828;2023-06-19T17:21:07;28.20;1.00
21590;DHT22;10957;50.968;6.828;2023-06-19T17:26:08;28.10;1.00
21590;DHT22;10957;50.968;6.828;2023-06-19T17:31:09;27.90;1.00
21590;DHT22;10957;50.968;6.828;2023-06-19T17:36:11;27.50;1.00
21590;DHT22;10957;50.968;6.828;2023-06-19T17:41:12;27.20;1.00
21590;DHT22;10957;50.968;6.828;2023-06-19T17:46:13;27.00;1.00
21590;DHT22;10957;50.968;6.828;2023-06-19T17:51:15;27.00;1.00
21590;DHT22;10957;50.968;6.828;2023-06-19T17:56:17;26.90;1.00
21590;DHT22;10957;50.968;6.828;2023-06-19T18:01:18;26.80;1.00
21590;DHT22;10957;50.968;6.828;2023-06-19T18:06:20;26.70;1.00
21590;DHT22;10957;50.968;6.828;2023-06-19T18:11:21;26.60;1.00
21590;DHT22;10957;50.968;6.828;2023-06-19T18:16:23;26.50;1.00
21590;DHT22;10957;50.968;6.828;2023-06-19T18:21:24;26.40;1.00
21590;DHT22;10957;50.968;6.828;2023-06-19T18:26:25;26.30;1.00
21590;DHT22;10957;50.968;6.828;2023-06-19T18:31:26;26.20;1.00
21590;DHT22;10957;50.968;6.828;2023-06-19T18:36:28;25.90;1.00
21590;DHT22;10957;50.968;6.828;2023-06-19T18:41:29;25.60;1.00
21590;DHT22;10957;50.968;6.828;2023-06-19T18:46:31;25.50;1.00
21590;DHT22;10957;50.968;6.828;2023-06-19T18:51:32;25.20;1.00
21590;DHT22;10957;50.968;6.828;2023-06-19T18:56:34;25.20;1.00
21590;DHT22;10957;50.968;6.828;2023-06-19T19:01:35;25.10;1.00
21590;DHT22;10957;50.968;6.828;2023-06-19T19:06:36;24.90;1.00
21590;DHT22;10957;50.968;6.828;2023-06-19T19:11:38;24.80;1.00
21590;DHT22;10957;50.968;6.828;2023-06-19T19:16:39;24.50;1.00
21590;DHT22;10957;50.968;6.828;2023-06-19T19:21:40;24.40;1.00
21590;DHT22;10957;50.968;6.828;2023-06-19T19:26:42;24.20;1.00
21590;DHT22;10957;50.968;6.828;2023-06-19T19:31:44;24.10;1.00
21590;DHT22;10957;50.968;6.828;2023-06-19T19:36:45;24.00;1.00
21590;DHT22;10957;50.968;6.828;2023-06-19T19:41:47;23.80;1.00
21590;DHT22;10957;50.968;6.828;2023-06-19T19:46:48;23.70;1.00
21590;DHT22;10957;50.968;6.828;2023-06-19T19:51:49;23.60;1.00
21590;DHT22;10957;50.968;6.828;2023-06-19T19:56:50;23.50;1.00
21590;DHT22;10957;50.968;6.828;2023-06-19T20:01:52;23.40;1.00
21590;DHT22;10957;50.968;6.828;2023-06-19T20:06:53;23.30;1.00
21590;DHT22;10957;50.968;6.828;2023-06-19T20:11:55;23.30;1.00
21590;DHT22;10957;50.968;6.828;2023-06-19T20:16:56;23.10;1.00
21590;DHT22;10957;50.968;6.828;2023-06-19T20:21:57;23.10;1.00
21590;DHT22;10957;50.968;6.828;2023-06-19T20:26:58;23.00;1.00
21590;DHT22;10957;50.968;6.828;2023-06-19T20:32:00;23.00;1.00
21590;DHT22;10957;50.968;6.828;2023-06-19T20:37:01;22.90;1.00
21590;DHT22;10957;50.968;6.828;2023-06-19T20:42:03;22.80;1.00
21590;DHT22;10957;50.968;6.828;2023-06-19T20:47:05;22.70;1.00
21590;DHT22;10957;50.968;6.828;2023-06-19T20:52:06;22.60;1.00
21590;DHT22;10957;50.968;6.828;2023-06-19T20:57:08;22.70;1.00
21590;DHT22;10957;50.968;6.828;2023-06-19T21:02:09;22.60;1.00
21590;DHT22;10957;50.968;6.828;2023-06-19T21:07:10;22.50;1.00
21590;DHT22;10957;50.968;6.828;2023-06-19T21:12:12;22.40;1.00
21590;DHT22;10957;50.968;6.828;2023-06-19T21:17:13;22.20;1.00
21590;DHT22;10957;50.968;6.828;2023-06-19T21:22:14;22.00;1.00
21590;DHT22;10957;50.968;6.828;2023-06-19T21:27:15;22.00;1.00
21590;DHT22;10957;50.968;6.828;2023-06-19T21:32:16;21.90;1.00
21590;DHT22;10957;50.968;6.828;2023-06-19T21:37:18;21.90;1.00
21590;DHT22;10957;50.968;6.828;2023-06-19T21:42:19;21.80;1.00
21590;DHT22;10957;50.968;6.828;2023-06-19T21:47:20;21.80;1.00
21590;DHT22;10957;50.968;6.828;2023-06-19T21:52:21;21.80;1.00
21590;DHT22;10957;50.968;6.828;2023-06-19T21:57:23;21.70;1.00
21590;DHT22;10957;50.968;6.828;2023-06-19T22:02:24;21.70;1.00
21590;DHT22;10957;50.968;6.828;2023-06-19T22:07:25;21.60;1.00
21590;DHT22;10957;50.968;6.828;2023-06-19T22:12:27;21.50;1.00
21590;DHT22;10957;50.968;6.828;2023-06-19T22:17:28;21.60;1.00
21590;DHT22;10957;50.968;6.828;2023-06-19T22:22:29;21.50;1.00
21590;DHT22;10957;50.968;6.828;2023-06-19T22:27:30;21.50;1.00
21590;DHT22;10957;50.968;6.828;2023-06-19T22:32:31;21.40;1.00
21590;DHT22;10957;50.968;6.828;2023-06-19T22:37:33;21.30;1.00
21590;DHT22;10957;50.968;6.828;2023-06-19T22:42:35;21.20;1.00
21590;DHT22;10957;50.968;6.828;2023-06-19T22:47:36;21.30;1.00
21590;DHT22;10957;50.968;6.828;2023-06-19T22:52:41;21.20;1.00
21590;DHT22;10957;50.968;6.828;2023-06-19T22:57:42;21.20;1.00
21590;DHT22;10957;50.968;6.828;2023-06-19T23:02:44;21.20;1.00
21590;DHT22;10957;50.968;6.828;2023-06-19T23:07:48;21.20;1.00
21590;DHT22;10957;50.968;6.828;2023-06-19T23:12:49;21.10;1.00
21590;DHT22;10957;50.968;6.828;2023-06-19T23:17:51;21.10;1.00
21590;DHT22;10957;50.968;6.828;2023-06-19T23:22:54;21.00;1.00
21590;DHT22;10957;50.968;6.828;2023-06-19T23:27:55;21.00;1.00
21590;DHT22;10957;50.968;6.828;2023-06-19T23:32:56;20.90;1.00
21590;DHT22;10957;50.968;6.828;2023-06-19T23:37:57;20.80;1.00
21590;DHT22;10957;50.968;6.828;2023-06-19T23:42:59;20.70;3.00
21590;DHT22;10957;50.968;6.828;2023-06-19T23:48:00;20.70;10.20
21590;DHT22;10957;50.968;6.828;2023-06-19T23:53:01;20.60;6.00
21590;DHT22;10957;50.968;6.828;2023-06-19T23:58:02;20.60;6.70
